sensor_id;sensor_type;location;lat;lon;timestamp;temperature;humidity
21275;DHT22;36472;52.170;20.884;2023-05-21T00:00:27;31.20;43.60
21275;DHT22;36472;52.170;20.884;2023-05-21T00:03:16;31.20;43.70
21275;DHT22;36472;52.170;20.884;2023-05-21T00:05:46;31.10;43.60
21275;DHT22;36472;52.170;20.884;2023-05-21T00:08:16;31.10;43.60
21275;DHT22;36472;52.170;20.884;2023-05-21T00:10:45;31.10;43.90
21275;DHT22;36472;52.170;20.884;2023-05-21T00:13:14;31.10;43.80
21275;DHT22;36472;52.170;20.884;2023-05-21T00:15:43;31.10;44.00
21275;DHT22;36472;52.170;20.884;2023-05-21T00:18:12;31.10;44.10
21275;DHT22;36472;52.170;20.884;2023-05-21T00:20:41;31.00;43.90
21275;DHT22;36472;52.170;20.884;2023-05-21T00:23:11;30.90;44.10
21275;DHT22;36472;52.170;20.884;2023-05-21T00:25:44;30.90;44.10
21275;DHT22;36472;52.170;20.884;2023-05-21T00:28:14;30.90;44.20
21275;DHT22;36472;52.170;20.884;2023-05-21T00:30:43;30.80;44.40
21275;DHT22;36472;52.170;20.884;2023-05-21T00:33:13;30.80;44.70
21275;DHT22;36472;52.170;20.884;2023-05-21T00:35:42;30.80;44.80
21275;DHT22;36472;52.170;20.884;2023-05-21T00:38:14;30.70;44.60
21275;DHT22;36472;52.170;20.884;2023-05-21T00:40:44;30.70;44.60
21275;DHT22;36472;52.170;20.884;2023-05-21T00:43:13;30.60;44.50
21275;DHT22;36472;52.170;20.884;2023-05-21T00:45:42;30.60;44.60
21275;DHT22;36472;52.170;20.884;2023-05-21T00:48:13;30.60;44.80
21275;DHT22;36472;52.170;20.884;2023-05-21T00:50:42;30.50;44.80
21275;DHT22;36472;52.170;20.884;2023-05-21T00:53:11;30.50;44.60
21275;DHT22;36472;52.170;20.884;2023-05-21T00:55:45;30.40;44.70
21275;DHT22;36472;52.170;20.884;2023-05-21T00:58:15;30.40;44.70
21275;DHT22;36472;52.170;20.884;2023-05-21T01:00:45;30.40;44.90
21275;DHT22;36472;52.170;20.884;2023-05-21T01:03:14;30.40;44.80
21275;DHT22;36472;52.170;20.884;2023-05-21T01:05:44;30.30;44.90
21275;DHT22;36472;52.170;20.884;2023-05-21T01:08:14;30.30;44.80
21275;DHT22;36472;52.170;20.884;2023-05-21T01:10:44;30.30;45.00
21275;DHT22;36472;52.170;20.884;2023-05-21T01:13:13;30.30;44.80
21275;DHT22;36472;52.170;20.884;2023-05-21T01:15:43;30.20;44.70
21275;DHT22;36472;52.170;20.884;2023-05-21T01:18:13;30.20;44.70
21275;DHT22;36472;52.170;20.884;2023-05-21T01:20:42;30.20;44.80
21275;DHT22;36472;52.170;20.884;2023-05-21T01:23:17;30.20;44.80
21275;DHT22;36472;52.170;20.884;2023-05-21T01:25:46;30.20;44.60
21275;DHT22;36472;52.170;20.884;2023-05-21T01:28:15;30.10;44.60
21275;DHT22;36472;52.170;20.884;2023-05-21T01:30:44;30.20;44.80
21275;DHT22;36472;52.170;20.884;2023-05-21T01:33:17;30.10;44.70
21275;DHT22;36472;52.170;20.884;2023-05-21T01:35:56;30.10;44.60
21275;DHT22;36472;52.170;20.884;2023-05-21T01:38:41;30.10;44.50
21275;DHT22;36472;52.170;20.884;2023-05-21T01:41:17;30.10;44.50
21275;DHT22;36472;52.170;20.884;2023-05-21T01:43:47;30.00;44.60
21275;DHT22;36472;52.170;20.884;2023-05-21T01:46:21;30.00;44.30
21275;DHT22;36472;52.170;20.884;2023-05-21T01:48:54;30.00;44.30
21275;DHT22;36472;52.170;20.884;2023-05-21T01:51:24;30.00;44.20
21275;DHT22;36472;52.170;20.884;2023-05-21T01:53:55;30.00;44.00
21275;DHT22;36472;52.170;20.884;2023-05-21T01:56:24;30.00;43.90
21275;DHT22;36472;52.170;20.884;2023-05-21T01:58:55;30.00;43.90
21275;DHT22;36472;52.170;20.884;2023-05-21T02:01:26;30.00;43.90
21275;DHT22;36472;52.170;20.884;2023-05-21T02:03:57;30.00;43.70
21275;DHT22;36472;52.170;20.884;2023-05-21T02:06:26;30.00;43.60
21275;DHT22;36472;52.170;20.884;2023-05-21T02:08:56;30.00;43.50
21275;DHT22;36472;52.170;20.884;2023-05-21T02:11:25;30.00;43.50
21275;DHT22;36472;52.170;20.884;2023-05-21T02:13:55;30.00;43.20
21275;DHT22;36472;52.170;20.884;2023-05-21T02:16:24;30.00;43.20
21275;DHT22;36472;52.170;20.884;2023-05-21T02:18:53;30.00;43.20
21275;DHT22;36472;52.170;20.884;2023-05-21T02:21:23;30.00;43.00
21275;DHT22;36472;52.170;20.884;2023-05-21T02:23:52;30.10;43.10
21275;DHT22;36472;52.170;20.884;2023-05-21T02:26:23;30.10;43.00
21275;DHT22;36472;52.170;20.884;2023-05-21T02:28:53;30.00;42.90
21275;DHT22;36472;52.170;20.884;2023-05-21T02:31:22;30.10;42.90
21275;DHT22;36472;52.170;20.884;2023-05-21T02:33:51;30.10;42.60
21275;DHT22;36472;52.170;20.884;2023-05-21T02:36:20;30.10;42.90
21275;DHT22;36472;52.170;20.884;2023-05-21T02:38:51;30.00;42.70
21275;DHT22;36472;52.170;20.884;2023-05-21T02:41:22;30.10;42.60
21275;DHT22;36472;52.170;20.884;2023-05-21T02:43:53;30.10;42.60
21275;DHT22;36472;52.170;20.884;2023-05-21T02:46:22;30.10;42.70
21275;DHT22;36472;52.170;20.884;2023-05-21T02:48:52;30.10;42.90
21275;DHT22;36472;52.170;20.884;2023-05-21T02:51:21;30.00;42.60
21275;DHT22;36472;52.170;20.884;2023-05-21T02:53:50;30.00;42.90
21275;DHT22;36472;52.170;20.884;2023-05-21T02:56:19;30.00;42.60
21275;DHT22;36472;52.170;20.884;2023-05-21T02:58:49;30.00;42.90
21275;DHT22;36472;52.170;20.884;2023-05-21T03:01:19;30.00;43.80
21275;DHT22;36472;52.170;20.884;2023-05-21T03:03:48;30.00;43.10
21275;DHT22;36472;52.170;20.884;2023-05-21T03:06:17;30.00;43.10
21275;DHT22;36472;52.170;20.884;2023-05-21T03:08:47;29.90;43.10
21275;DHT22;36472;52.170;20.884;2023-05-21T03:11:17;29.90;43.20
21275;DHT22;36472;52.170;20.884;2023-05-21T03:13:46;29.90;43.40
21275;DHT22;36472;52.170;20.884;2023-05-21T03:16:16;29.90;43.30
21275;DHT22;36472;52.170;20.884;2023-05-21T03:18:46;29.90;43.30
21275;DHT22;36472;52.170;20.884;2023-05-21T03:21:14;29.90;43.40
21275;DHT22;36472;52.170;20.884;2023-05-21T03:23:44;29.90;43.40
21275;DHT22;36472;52.170;20.884;2023-05-21T03:26:13;29.90;43.40
21275;DHT22;36472;52.170;20.884;2023-05-21T03:28:42;29.90;43.20
21275;DHT22;36472;52.170;20.884;2023-05-21T03:31:11;29.90;43.40
21275;DHT22;36472;52.170;20.884;2023-05-21T03:34:00;29.90;43.30
21275;DHT22;36472;52.170;20.884;2023-05-21T03:36:31;29.90;43.40
21275;DHT22;36472;52.170;20.884;2023-05-21T03:39:02;29.90;43.50
21275;DHT22;36472;52.170;20.884;2023-05-21T03:41:33;30.00;43.20
21275;DHT22;36472;52.170;20.884;2023-05-21T03:44:08;30.00;43.20
21275;DHT22;36472;52.170;20.884;2023-05-21T03:46:47;30.00;43.30
21275;DHT22;36472;52.170;20.884;2023-05-21T03:49:24;30.00;43.30
21275;DHT22;36472;52.170;20.884;2023-05-21T03:51:55;30.10;43.20
21275;DHT22;36472;52.170;20.884;2023-05-21T03:54:25;30.10;43.20
21275;DHT22;36472;52.170;20.884;2023-05-21T03:56:58;30.10;43.00
21275;DHT22;36472;52.170;20.884;2023-05-21T03:59:28;30.20;42.90
21275;DHT22;36472;52.170;20.884;2023-05-21T04:01:58;30.20;42.20
21275;DHT22;36472;52.170;20.884;2023-05-21T04:04:28;30.30;42.50
21275;DHT22;36472;52.170;20.884;2023-05-21T04:06:57;30.30;42.80
21275;DHT22;36472;52.170;20.884;2023-05-21T04:09:27;30.40;42.30
21275;DHT22;36472;52.170;20.884;2023-05-21T04:11:56;30.40;42.70
21275;DHT22;36472;52.170;20.884;2023-05-21T04:14:25;30.50;42.70
21275;DHT22;36472;52.170;20.884;2023-05-21T04:16:54;30.50;42.20
21275;DHT22;36472;52.170;20.884;2023-05-21T04:19:23;30.50;41.70
21275;DHT22;36472;52.170;20.884;2023-05-21T04:21:53;30.60;42.20
21275;DHT22;36472;52.170;20.884;2023-05-21T04:24:22;30.60;42.10
21275;DHT22;36472;52.170;20.884;2023-05-21T04:27:08;30.70;41.50
21275;DHT22;36472;52.170;20.884;2023-05-21T04:29:37;30.80;40.90
21275;DHT22;36472;52.170;20.884;2023-05-21T04:32:09;30.80;41.90
21275;DHT22;36472;52.170;20.884;2023-05-21T04:34:41;30.80;41.20
21275;DHT22;36472;52.170;20.884;2023-05-21T04:37:12;30.90;41.10
21275;DHT22;36472;52.170;20.884;2023-05-21T04:39:45;31.00;41.10
21275;DHT22;36472;52.170;20.884;2023-05-21T04:42:14;31.00;40.60
21275;DHT22;36472;52.170;20.884;2023-05-21T04:44:43;31.00;40.50
21275;DHT22;36472;52.170;20.884;2023-05-21T04:47:12;31.10;40.70
21275;DHT22;36472;52.170;20.884;2023-05-21T04:49:42;31.20;40.10
21275;DHT22;36472;52.170;20.884;2023-05-21T04:52:12;31.30;39.90
21275;DHT22;36472;52.170;20.884;2023-05-21T04:54:41;31.30;39.40
21275;DHT22;36472;52.170;20.884;2023-05-21T04:57:12;31.30;39.50
21275;DHT22;36472;52.170;20.884;2023-05-21T04:59:41;31.40;39.70
21275;DHT22;36472;52.170;20.884;2023-05-21T05:02:10;31.40;39.20
21275;DHT22;36472;52.170;20.884;2023-05-21T05:04:39;31.50;40.00
21275;DHT22;36472;52.170;20.884;2023-05-21T05:07:11;31.60;40.10
21275;DHT22;36472;52.170;20.884;2023-05-21T05:09:41;31.70;40.00
21275;DHT22;36472;52.170;20.884;2023-05-21T05:12:10;31.70;39.20
21275;DHT22;36472;52.170;20.884;2023-05-21T05:14:39;31.70;38.90
21275;DHT22;36472;52.170;20.884;2023-05-21T05:17:08;31.80;38.80
21275;DHT22;36472;52.170;20.884;2023-05-21T05:19:37;31.80;38.90
21275;DHT22;36472;52.170;20.884;2023-05-21T05:22:07;31.80;38.90
21275;DHT22;36472;52.170;20.884;2023-05-21T05:24:40;31.80;38.30
21275;DHT22;36472;52.170;20.884;2023-05-21T05:27:08;31.90;39.50
21275;DHT22;36472;52.170;20.884;2023-05-21T05:29:37;32.00;39.40
21275;DHT22;36472;52.170;20.884;2023-05-21T05:32:07;32.00;39.30
21275;DHT22;36472;52.170;20.884;2023-05-21T05:34:36;32.10;39.00
21275;DHT22;36472;52.170;20.884;2023-05-21T05:37:05;32.20;38.90
21275;DHT22;36472;52.170;20.884;2023-05-21T05:39:34;32.30;38.90
21275;DHT22;36472;52.170;20.884;2023-05-21T05:42:05;32.40;39.30
21275;DHT22;36472;52.170;20.884;2023-05-21T05:44:34;32.50;38.10
21275;DHT22;36472;52.170;20.884;2023-05-21T05:47:03;32.70;38.60
21275;DHT22;36472;52.170;20.884;2023-05-21T05:49:38;32.80;38.10
21275;DHT22;36472;52.170;20.884;2023-05-21T05:52:07;33.00;38.40
21275;DHT22;36472;52.170;20.884;2023-05-21T05:54:36;33.20;37.70
21275;DHT22;36472;52.170;20.884;2023-05-21T05:57:06;33.30;37.50
21275;DHT22;36472;52.170;20.884;2023-05-21T05:59:36;33.40;37.80
21275;DHT22;36472;52.170;20.884;2023-05-21T06:02:05;33.50;37.60
21275;DHT22;36472;52.170;20.884;2023-05-21T06:04:34;33.70;39.10
21275;DHT22;36472;52.170;20.884;2023-05-21T06:07:04;33.70;37.80
21275;DHT22;36472;52.170;20.884;2023-05-21T06:09:35;33.90;36.70
21275;DHT22;36472;52.170;20.884;2023-05-21T06:12:06;34.10;36.60
21275;DHT22;36472;52.170;20.884;2023-05-21T06:14:41;34.10;35.70
21275;DHT22;36472;52.170;20.884;2023-05-21T06:17:12;34.10;35.20
21275;DHT22;36472;52.170;20.884;2023-05-21T06:19:41;34.30;35.60
21275;DHT22;36472;52.170;20.884;2023-05-21T06:22:11;34.40;35.30
21275;DHT22;36472;52.170;20.884;2023-05-21T06:24:40;34.50;36.10
21275;DHT22;36472;52.170;20.884;2023-05-21T06:27:11;34.60;35.70
21275;DHT22;36472;52.170;20.884;2023-05-21T06:29:40;34.70;35.30
21275;DHT22;36472;52.170;20.884;2023-05-21T06:32:09;34.80;35.30
21275;DHT22;36472;52.170;20.884;2023-05-21T06:34:39;34.90;35.10
21275;DHT22;36472;52.170;20.884;2023-05-21T06:37:08;35.00;35.40
21275;DHT22;36472;52.170;20.884;2023-05-21T06:39:37;35.10;34.80
21275;DHT22;36472;52.170;20.884;2023-05-21T06:42:06;35.20;34.90
21275;DHT22;36472;52.170;20.884;2023-05-21T06:45:12;35.30;34.60
21275;DHT22;36472;52.170;20.884;2023-05-21T06:47:43;35.30;34.70
21275;DHT22;36472;52.170;20.884;2023-05-21T06:50:12;35.40;34.90
21275;DHT22;36472;52.170;20.884;2023-05-21T06:52:41;35.50;35.10
21275;DHT22;36472;52.170;20.884;2023-05-21T06:55:10;35.60;34.90
21275;DHT22;36472;52.170;20.884;2023-05-21T06:57:58;35.70;34.60
21275;DHT22;36472;52.170;20.884;2023-05-21T07:00:28;35.80;35.00
21275;DHT22;36472;52.170;20.884;2023-05-21T07:02:57;35.80;34.30
21275;DHT22;36472;52.170;20.884;2023-05-21T07:05:27;35.90;35.20
21275;DHT22;36472;52.170;20.884;2023-05-21T07:07:55;36.00;34.20
21275;DHT22;36472;52.170;20.884;2023-05-21T07:10:24;36.00;34.70
21275;DHT22;36472;52.170;20.884;2023-05-21T07:12:53;36.10;34.20
21275;DHT22;36472;52.170;20.884;2023-05-21T07:15:22;36.10;34.00
21275;DHT22;36472;52.170;20.884;2023-05-21T07:17:53;36.20;35.00
21275;DHT22;36472;52.170;20.884;2023-05-21T07:20:22;36.30;33.00
21275;DHT22;36472;52.170;20.884;2023-05-21T07:22:54;36.30;33.00
21275;DHT22;36472;52.170;20.884;2023-05-21T07:25:23;36.30;33.90
21275;DHT22;36472;52.170;20.884;2023-05-21T07:27:52;36.30;34.50
21275;DHT22;36472;52.170;20.884;2023-05-21T07:30:21;36.40;34.50
21275;DHT22;36472;52.170;20.884;2023-05-21T07:32:50;36.40;33.60
21275;DHT22;36472;52.170;20.884;2023-05-21T07:35:21;36.50;34.00
21275;DHT22;36472;52.170;20.884;2023-05-21T07:37:50;36.50;33.30
21275;DHT22;36472;52.170;20.884;2023-05-21T07:40:19;36.50;33.50
21275;DHT22;36472;52.170;20.884;2023-05-21T07:42:49;36.60;33.20
21275;DHT22;36472;52.170;20.884;2023-05-21T07:45:21;36.70;34.00
21275;DHT22;36472;52.170;20.884;2023-05-21T07:47:50;36.80;32.70
21275;DHT22;36472;52.170;20.884;2023-05-21T07:50:21;36.80;33.20
21275;DHT22;36472;52.170;20.884;2023-05-21T07:52:49;36.90;32.10
21275;DHT22;36472;52.170;20.884;2023-05-21T07:55:20;36.80;32.10
21275;DHT22;36472;52.170;20.884;2023-05-21T07:57:49;36.80;32.70
21275;DHT22;36472;52.170;20.884;2023-05-21T08:00:24;36.90;33.00
21275;DHT22;36472;52.170;20.884;2023-05-21T08:02:56;36.90;32.40
21275;DHT22;36472;52.170;20.884;2023-05-21T08:05:27;37.10;33.00
21275;DHT22;36472;52.170;20.884;2023-05-21T08:07:56;37.10;31.90
21275;DHT22;36472;52.170;20.884;2023-05-21T08:10:29;37.20;31.10
21275;DHT22;36472;52.170;20.884;2023-05-21T08:12:58;37.20;31.40
21275;DHT22;36472;52.170;20.884;2023-05-21T08:15:27;37.20;29.90
21275;DHT22;36472;52.170;20.884;2023-05-21T08:17:56;37.20;30.50
21275;DHT22;36472;52.170;20.884;2023-05-21T08:20:27;37.20;31.00
21275;DHT22;36472;52.170;20.884;2023-05-21T08:22:57;37.20;31.10
21275;DHT22;36472;52.170;20.884;2023-05-21T08:25:30;37.20;29.30
21275;DHT22;36472;52.170;20.884;2023-05-21T08:28:01;37.30;30.20
21275;DHT22;36472;52.170;20.884;2023-05-21T08:30:30;37.30;32.00
21275;DHT22;36472;52.170;20.884;2023-05-21T08:32:59;37.30;31.40
21275;DHT22;36472;52.170;20.884;2023-05-21T08:35:32;37.40;32.00
21275;DHT22;36472;52.170;20.884;2023-05-21T08:38:10;37.50;31.50
21275;DHT22;36472;52.170;20.884;2023-05-21T08:40:46;37.60;32.30
21275;DHT22;36472;52.170;20.884;2023-05-21T08:43:17;37.60;30.70
21275;DHT22;36472;52.170;20.884;2023-05-21T08:45:52;37.70;30.90
21275;DHT22;36472;52.170;20.884;2023-05-21T08:48:26;37.80;31.50
21275;DHT22;36472;52.170;20.884;2023-05-21T08:50:58;37.80;30.60
21275;DHT22;36472;52.170;20.884;2023-05-21T08:53:32;37.70;30.00
21275;DHT22;36472;52.170;20.884;2023-05-21T08:56:04;37.70;30.00
21275;DHT22;36472;52.170;20.884;2023-05-21T08:58:45;37.70;30.20
21275;DHT22;36472;52.170;20.884;2023-05-21T09:01:18;37.70;30.20
21275;DHT22;36472;52.170;20.884;2023-05-21T09:03:56;37.80;30.20
21275;DHT22;36472;52.170;20.884;2023-05-21T09:06:49;37.80;29.80
21275;DHT22;36472;52.170;20.884;2023-05-21T09:09:32;37.80;29.80
21275;DHT22;36472;52.170;20.884;2023-05-21T09:12:07;37.70;29.50
21275;DHT22;36472;52.170;20.884;2023-05-21T09:14:36;37.70;28.80
21275;DHT22;36472;52.170;20.884;2023-05-21T09:17:13;37.70;30.30
21275;DHT22;36472;52.170;20.884;2023-05-21T09:20:09;37.80;30.00
21275;DHT22;36472;52.170;20.884;2023-05-21T09:22:46;37.70;29.40
21275;DHT22;36472;52.170;20.884;2023-05-21T09:25:20;37.90;29.50
21275;DHT22;36472;52.170;20.884;2023-05-21T09:27:51;37.90;30.00
21275;DHT22;36472;52.170;20.884;2023-05-21T09:30:20;37.90;28.40
21275;DHT22;36472;52.170;20.884;2023-05-21T09:32:57;38.00;29.90
21275;DHT22;36472;52.170;20.884;2023-05-21T09:35:27;38.00;29.60
21275;DHT22;36472;52.170;20.884;2023-05-21T09:37:57;38.10;28.80
21275;DHT22;36472;52.170;20.884;2023-05-21T09:40:26;38.00;28.60
21275;DHT22;36472;52.170;20.884;2023-05-21T09:42:55;38.10;28.60
21275;DHT22;36472;52.170;20.884;2023-05-21T09:45:26;38.10;28.50
21275;DHT22;36472;52.170;20.884;2023-05-21T09:48:01;38.10;28.30
21275;DHT22;36472;52.170;20.884;2023-05-21T09:50:35;38.20;29.50
21275;DHT22;36472;52.170;20.884;2023-05-21T09:53:10;38.40;28.70
21275;DHT22;36472;52.170;20.884;2023-05-21T09:55:40;38.40;28.80
21275;DHT22;36472;52.170;20.884;2023-05-21T09:58:09;38.30;28.40
21275;DHT22;36472;52.170;20.884;2023-05-21T10:00:38;38.30;28.60
21275;DHT22;36472;52.170;20.884;2023-05-21T10:03:08;38.40;29.10
21275;DHT22;36472;52.170;20.884;2023-05-21T10:05:41;38.40;29.60
21275;DHT22;36472;52.170;20.884;2023-05-21T10:08:13;38.50;28.30
21275;DHT22;36472;52.170;20.884;2023-05-21T10:10:46;38.60;28.90
21275;DHT22;36472;52.170;20.884;2023-05-21T10:13:20;38.60;28.20
21275;DHT22;36472;52.170;20.884;2023-05-21T10:15:57;38.70;28.90
21275;DHT22;36472;52.170;20.884;2023-05-21T10:18:30;38.80;27.90
21275;DHT22;36472;52.170;20.884;2023-05-21T10:21:01;38.90;28.10
21275;DHT22;36472;52.170;20.884;2023-05-21T10:23:32;38.90;28.30
21275;DHT22;36472;52.170;20.884;2023-05-21T10:26:04;38.90;28.50
21275;DHT22;36472;52.170;20.884;2023-05-21T10:28:35;39.00;28.00
21275;DHT22;36472;52.170;20.884;2023-05-21T10:31:05;39.20;28.50
21275;DHT22;36472;52.170;20.884;2023-05-21T10:33:35;39.40;28.60
21275;DHT22;36472;52.170;20.884;2023-05-21T10:36:06;39.60;28.60
21275;DHT22;36472;52.170;20.884;2023-05-21T10:38:38;39.90;27.30
21275;DHT22;36472;52.170;20.884;2023-05-21T10:41:08;40.00;27.80
21275;DHT22;36472;52.170;20.884;2023-05-21T10:43:55;40.00;27.40
21275;DHT22;36472;52.170;20.884;2023-05-21T10:47:00;40.10;27.70
21275;DHT22;36472;52.170;20.884;2023-05-21T10:49:52;40.00;27.60
21275;DHT22;36472;52.170;20.884;2023-05-21T10:52:51;40.10;27.50
21275;DHT22;36472;52.170;20.884;2023-05-21T10:55:37;40.00;27.50
21275;DHT22;36472;52.170;20.884;2023-05-21T11:01:49;40.10;27.70
21275;DHT22;36472;52.170;20.884;2023-05-21T11:04:25;40.00;27.20
21275;DHT22;36472;52.170;20.884;2023-05-21T11:06:55;39.90;27.30
21275;DHT22;36472;52.170;20.884;2023-05-21T11:09:26;39.90;27.40
21275;DHT22;36472;52.170;20.884;2023-05-21T11:11:58;39.80;27.60
21275;DHT22;36472;52.170;20.884;2023-05-21T11:14:32;39.80;28.20
21275;DHT22;36472;52.170;20.884;2023-05-21T11:17:10;39.90;26.90
21275;DHT22;36472;52.170;20.884;2023-05-21T11:19:41;40.00;26.20
21275;DHT22;36472;52.170;20.884;2023-05-21T11:22:21;40.00;25.80
21275;DHT22;36472;52.170;20.884;2023-05-21T11:24:52;39.90;26.60
21275;DHT22;36472;52.170;20.884;2023-05-21T11:27:34;39.80;27.00
21275;DHT22;36472;52.170;20.884;2023-05-21T11:30:05;39.80;27.70
21275;DHT22;36472;52.170;20.884;2023-05-21T11:32:36;39.90;27.30
21275;DHT22;36472;52.170;20.884;2023-05-21T11:35:06;39.80;27.30
21275;DHT22;36472;52.170;20.884;2023-05-21T11:37:37;39.90;27.00
21275;DHT22;36472;52.170;20.884;2023-05-21T11:40:24;39.80;26.80
21275;DHT22;36472;52.170;20.884;2023-05-21T11:42:58;39.80;27.30
21275;DHT22;36472;52.170;20.884;2023-05-21T11:45:31;39.80;26.70
21275;DHT22;36472;52.170;20.884;2023-05-21T11:48:00;39.80;27.00
21275;DHT22;36472;52.170;20.884;2023-05-21T11:50:30;39.80;26.70
21275;DHT22;36472;52.170;20.884;2023-05-21T11:53:01;39.80;28.00
21275;DHT22;36472;52.170;20.884;2023-05-21T11:55:30;39.70;28.00
21275;DHT22;36472;52.170;20.884;2023-05-21T11:58:01;39.70;28.10
21275;DHT22;36472;52.170;20.884;2023-05-21T12:00:30;39.60;27.80
21275;DHT22;36472;52.170;20.884;2023-05-21T12:03:05;39.40;27.70
21275;DHT22;36472;52.170;20.884;2023-05-21T12:05:43;39.30;28.00
21275;DHT22;36472;52.170;20.884;2023-05-21T12:08:19;39.20;28.90
21275;DHT22;36472;52.170;20.884;2023-05-21T12:10:55;39.10;29.10
21275;DHT22;36472;52.170;20.884;2023-05-21T12:13:27;39.10;28.60
21275;DHT22;36472;52.170;20.884;2023-05-21T12:15:56;38.90;28.30
21275;DHT22;36472;52.170;20.884;2023-05-21T12:18:25;38.80;28.70
21275;DHT22;36472;52.170;20.884;2023-05-21T12:20:54;38.70;27.30
21275;DHT22;36472;52.170;20.884;2023-05-21T12:23:24;38.60;27.80
21275;DHT22;36472;52.170;20.884;2023-05-21T12:25:53;38.50;28.10
21275;DHT22;36472;52.170;20.884;2023-05-21T12:28:23;38.40;28.90
21275;DHT22;36472;52.170;20.884;2023-05-21T12:30:53;38.40;28.70
21275;DHT22;36472;52.170;20.884;2023-05-21T12:33:22;38.40;28.80
21275;DHT22;36472;52.170;20.884;2023-05-21T12:35:52;38.40;29.00
21275;DHT22;36472;52.170;20.884;2023-05-21T12:38:21;38.20;28.70
21275;DHT22;36472;52.170;20.884;2023-05-21T12:40:50;38.20;28.90
21275;DHT22;36472;52.170;20.884;2023-05-21T12:43:19;38.10;29.10
21275;DHT22;36472;52.170;20.884;2023-05-21T12:45:48;38.10;28.90
21275;DHT22;36472;52.170;20.884;2023-05-21T12:48:18;38.00;28.60
21275;DHT22;36472;52.170;20.884;2023-05-21T12:50:47;37.90;28.10
21275;DHT22;36472;52.170;20.884;2023-05-21T12:53:16;37.90;28.80
21275;DHT22;36472;52.170;20.884;2023-05-21T12:55:45;37.90;28.10
21275;DHT22;36472;52.170;20.884;2023-05-21T12:58:14;37.80;28.10
21275;DHT22;36472;52.170;20.884;2023-05-21T13:00:43;37.90;28.10
21275;DHT22;36472;52.170;20.884;2023-05-21T13:03:12;37.90;29.00
21275;DHT22;36472;52.170;20.884;2023-05-21T13:05:43;37.90;29.60
21275;DHT22;36472;52.170;20.884;2023-05-21T13:08:12;37.90;29.00
21275;DHT22;36472;52.170;20.884;2023-05-21T13:10:43;37.90;28.80
21275;DHT22;36472;52.170;20.884;2023-05-21T13:13:12;37.90;28.80
21275;DHT22;36472;52.170;20.884;2023-05-21T13:15:41;37.90;28.60
21275;DHT22;36472;52.170;20.884;2023-05-21T13:18:10;37.80;28.70
21275;DHT22;36472;52.170;20.884;2023-05-21T13:20:39;37.80;28.90
21275;DHT22;36472;52.170;20.884;2023-05-21T13:23:10;37.80;28.40
21275;DHT22;36472;52.170;20.884;2023-05-21T13:25:39;37.80;28.30
21275;DHT22;36472;52.170;20.884;2023-05-21T13:28:08;37.90;28.70
21275;DHT22;36472;52.170;20.884;2023-05-21T13:30:41;37.90;29.00
21275;DHT22;36472;52.170;20.884;2023-05-21T13:33:10;37.90;29.30
21275;DHT22;36472;52.170;20.884;2023-05-21T13:35:39;37.90;28.60
21275;DHT22;36472;52.170;20.884;2023-05-21T13:38:09;37.80;28.70
21275;DHT22;36472;52.170;20.884;2023-05-21T13:40:38;37.80;29.30
21275;DHT22;36472;52.170;20.884;2023-05-21T13:43:07;37.80;29.10
21275;DHT22;36472;52.170;20.884;2023-05-21T13:45:36;37.70;28.50
21275;DHT22;36472;52.170;20.884;2023-05-21T13:48:05;37.70;28.90
21275;DHT22;36472;52.170;20.884;2023-05-21T13:50:34;37.70;28.60
21275;DHT22;36472;52.170;20.884;2023-05-21T13:53:03;37.70;28.70
21275;DHT22;36472;52.170;20.884;2023-05-21T13:55:34;37.70;28.10
21275;DHT22;36472;52.170;20.884;2023-05-21T13:58:03;37.60;28.70
21275;DHT22;36472;52.170;20.884;2023-05-21T14:00:32;37.70;28.70
21275;DHT22;36472;52.170;20.884;2023-05-21T14:03:01;37.70;29.00
21275;DHT22;36472;52.170;20.884;2023-05-21T14:05:33;37.70;29.20
21275;DHT22;36472;52.170;20.884;2023-05-21T14:08:01;37.70;29.50
21275;DHT22;36472;52.170;20.884;2023-05-21T14:10:31;37.70;29.30
21275;DHT22;36472;52.170;20.884;2023-05-21T14:13:01;37.60;28.80
21275;DHT22;36472;52.170;20.884;2023-05-21T14:15:46;37.60;28.70
21275;DHT22;36472;52.170;20.884;2023-05-21T14:18:15;37.50;28.80
21275;DHT22;36472;52.170;20.884;2023-05-21T14:20:44;37.40;29.10
21275;DHT22;36472;52.170;20.884;2023-05-21T14:23:13;37.50;28.80
21275;DHT22;36472;52.170;20.884;2023-05-21T14:25:42;37.50;28.50
21275;DHT22;36472;52.170;20.884;2023-05-21T14:28:13;37.50;28.30
21275;DHT22;36472;52.170;20.884;2023-05-21T14:30:42;37.50;28.60
21275;DHT22;36472;52.170;20.884;2023-05-21T14:33:10;37.50;28.90
21275;DHT22;36472;52.170;20.884;2023-05-21T14:35:40;37.60;28.60
21275;DHT22;36472;52.170;20.884;2023-05-21T14:38:10;37.60;28.20
21275;DHT22;36472;52.170;20.884;2023-05-21T14:40:39;37.60;29.00
21275;DHT22;36472;52.170;20.884;2023-05-21T14:43:08;37.70;28.90
21275;DHT22;36472;52.170;20.884;2023-05-21T14:45:38;37.70;28.30
21275;DHT22;36472;52.170;20.884;2023-05-21T14:48:07;37.70;28.00
21275;DHT22;36472;52.170;20.884;2023-05-21T14:50:36;37.70;28.40
21275;DHT22;36472;52.170;20.884;2023-05-21T14:53:06;37.70;28.60
21275;DHT22;36472;52.170;20.884;2023-05-21T14:55:37;37.70;28.40
21275;DHT22;36472;52.170;20.884;2023-05-21T14:58:06;37.80;28.90
21275;DHT22;36472;52.170;20.884;2023-05-21T15:00:36;37.70;28.40
21275;DHT22;36472;52.170;20.884;2023-05-21T15:03:06;37.70;28.30
21275;DHT22;36472;52.170;20.884;2023-05-21T15:05:35;37.70;28.10
21275;DHT22;36472;52.170;20.884;2023-05-21T15:08:04;37.70;28.20
21275;DHT22;36472;52.170;20.884;2023-05-21T15:10:36;37.70;28.50
21275;DHT22;36472;52.170;20.884;2023-05-21T15:13:04;37.80;28.70
21275;DHT22;36472;52.170;20.884;2023-05-21T15:15:34;37.70;28.20
21275;DHT22;36472;52.170;20.884;2023-05-21T15:18:04;37.70;27.80
21275;DHT22;36472;52.170;20.884;2023-05-21T15:20:33;37.80;28.20
21275;DHT22;36472;52.170;20.884;2023-05-21T15:23:02;37.80;28.20
21275;DHT22;36472;52.170;20.884;2023-05-21T15:25:43;37.80;28.00
21275;DHT22;36472;52.170;20.884;2023-05-21T15:28:12;37.70;28.10
21275;DHT22;36472;52.170;20.884;2023-05-21T15:30:41;37.60;28.10
21275;DHT22;36472;52.170;20.884;2023-05-21T15:33:11;37.60;28.50
21275;DHT22;36472;52.170;20.884;2023-05-21T15:35:40;37.50;28.20
21275;DHT22;36472;52.170;20.884;2023-05-21T15:38:10;37.50;27.90
21275;DHT22;36472;52.170;20.884;2023-05-21T15:40:39;37.50;28.50
21275;DHT22;36472;52.170;20.884;2023-05-21T15:43:08;37.50;27.90